Time;durP1;ratioP1;P1;durP2;ratioP2;P2;SDS_P1;SDS_P2;PMS_P1;PMS_P2;Temp;Humidity;BMP_temperature;BMP_pressure;BME280_temperature;BME280_humidity;BME280_pressure;Samples;Min_cycle;Max_cycle;Signal;HPM_P1;HPM_P2
2023/12/15 00:01:44;;;;;;;0.10;0.10;;;;;;;;;;4975447;28;20192;-90
2023/12/15 00:04:10;;;;;;;0.10;0.10;;;;;;;;;;4975972;28;20061;-89
2023/12/15 00:06:36;;;;;;;0.10;0.10;;;;;;;;;;4975710;28;20034;-90
2023/12/15 00:09:02;;;;;;;0.70;0.52;;;;;;;;;;4975673;28;20042;-88
2023/12/15 00:11:28;;;;;;;0.10;0.10;;;;;;;;;;4975671;28;20042;-89
2023/12/15 00:13:54;;;;;;;0.20;0.20;;;;;;;;;;4975795;28;20049;-89
2023/12/15 00:16:22;;;;;;;0.20;0.20;;;;;;;;;;4975700;28;20078;-89
2023/12/15 00:18:48;;;;;;;0.10;0.10;;;;;;;;;;4976181;28;20129;-90
2023/12/15 00:21:14;;;;;;;0.10;0.10;;;;;;;;;;4975761;28;20077;-90
2023/12/15 00:23:40;;;;;;;0.10;0.10;;;;;;;;;;4976067;28;20080;-90
2023/12/15 00:26:06;;;;;;;0.10;0.10;;;;;;;;;;4975799;28;20553;-90
2023/12/15 00:28:32;;;;;;;0.10;0.10;;;;;;;;;;4975692;28;20038;-91
2023/12/15 00:31:00;;;;;;;0.10;0.10;;;;;;;;;;4975924;28;20572;-89
2023/12/15 00:33:26;;;;;;;0.10;0.10;;;;;;;;;;4976148;28;20042;-90
2023/12/15 00:35:52;;;;;;;0.10;0.10;;;;;;;;;;4975548;28;20553;-91
2023/12/15 00:38:18;;;;;;;0.10;0.10;;;;;;;;;;4975659;28;20038;-91
2023/12/15 00:40:44;;;;;;;0.10;0.10;;;;;;;;;;4975508;28;20078;-90
2023/12/15 00:43:10;;;;;;;0.10;0.10;;;;;;;;;;4975782;28;20062;-91
2023/12/15 00:45:36;;;;;;;0.20;0.20;;;;;;;;;;4975681;28;20102;-91
2023/12/15 00:48:02;;;;;;;0.10;0.10;;;;;;;;;;4975416;28;20128;-90
2023/12/15 00:50:28;;;;;;;0.10;0.10;;;;;;;;;;4975629;28;20277;-90
2023/12/15 00:52:55;;;;;;;0.10;0.10;;;;;;;;;;4975369;28;20046;-91
2023/12/15 00:55:21;;;;;;;0.20;0.20;;;;;;;;;;4975513;28;20074;-90
2023/12/15 00:57:48;;;;;;;0.10;0.10;;;;;;;;;;4975379;28;20042;-90
2023/12/15 01:00:14;;;;;;;0.20;0.20;;;;;;;;;;4975329;28;20510;-90
2023/12/15 01:02:41;;;;;;;0.10;0.10;;;;;;;;;;4975648;28;20038;-91
2023/12/15 01:05:07;;;;;;;0.10;0.10;;;;;;;;;;4975697;28;20069;-90
2023/12/15 01:07:33;;;;;;;0.10;0.10;;;;;;;;;;4975299;28;20054;-89
2023/12/15 01:09:59;;;;;;;0.10;0.10;;;;;;;;;;4975496;28;20129;-89
2023/12/15 01:12:25;;;;;;;0.30;0.30;;;;;;;;;;4975281;28;20081;-90
2023/12/15 01:14:51;;;;;;;0.10;0.10;;;;;;;;;;4977902;28;20042;-90
2023/12/15 01:17:17;;;;;;;0.10;0.10;;;;;;;;;;4979098;28;20073;-90
2023/12/15 01:19:43;;;;;;;0.10;0.10;;;;;;;;;;4978807;28;20046;-90
2023/12/15 01:22:10;;;;;;;0.10;0.10;;;;;;;;;;4978728;28;20039;-90
2023/12/15 01:24:36;;;;;;;0.10;0.10;;;;;;;;;;4978861;28;20046;-90
2023/12/15 01:27:02;;;;;;;0.10;0.10;;;;;;;;;;4979074;28;20050;-90
2023/12/15 01:29:28;;;;;;;0.10;0.10;;;;;;;;;;4978580;28;20042;-90
2023/12/15 01:31:54;;;;;;;0.10;0.10;;;;;;;;;;4978743;28;20257;-90
2023/12/15 01:34:21;;;;;;;0.10;0.10;;;;;;;;;;4979074;28;20248;-91
2023/12/15 01:36:47;;;;;;;0.15;0.15;;;;;;;;;;4978498;28;20100;-91
2023/12/15 01:39:13;;;;;;;0.10;0.10;;;;;;;;;;4978760;28;20133;-90
2023/12/15 01:41:39;;;;;;;0.20;0.20;;;;;;;;;;4979072;28;20209;-90
2023/12/15 01:44:05;;;;;;;0.10;0.10;;;;;;;;;;4979167;28;20437;-91
2023/12/15 01:46:31;;;;;;;0.20;0.20;;;;;;;;;;4978450;28;20042;-90
2023/12/15 01:48:58;;;;;;;0.20;0.20;;;;;;;;;;4978506;28;20046;-90
2023/12/15 01:51:24;;;;;;;0.10;0.10;;;;;;;;;;4978342;28;20050;-91
2023/12/15 01:53:50;;;;;;;0.20;0.20;;;;;;;;;;4978254;28;20049;-90
2023/12/15 01:56:16;;;;;;;0.10;0.10;;;;;;;;;;4978188;28;20397;-91
2023/12/15 01:58:42;;;;;;;0.10;0.10;;;;;;;;;;4978243;28;20517;-90
2023/12/15 02:01:08;;;;;;;0.10;0.10;;;;;;;;;;4978131;28;20206;-90
2023/12/15 02:03:34;;;;;;;0.10;0.10;;;;;;;;;;4978145;28;20057;-90
2023/12/15 02:06:01;;;;;;;0.15;0.15;;;;;;;;;;4978746;28;20046;-90
2023/12/15 02:08:27;;;;;;;0.10;0.10;;;;;;;;;;4978221;28;20105;-91
2023/12/15 02:10:53;;;;;;;0.10;0.10;;;;;;;;;;4977651;28;20490;-89
2023/12/15 02:13:19;;;;;;;0.10;0.10;;;;;;;;;;4978066;28;20084;-90
2023/12/15 02:15:45;;;;;;;0.10;0.10;;;;;;;;;;4977657;28;20045;-89
2023/12/15 02:18:12;;;;;;;0.10;0.10;;;;;;;;;;4977829;28;20434;-90
2023/12/15 02:20:38;;;;;;;0.10;0.10;;;;;;;;;;4978191;28;20398;-89
2023/12/15 02:23:04;;;;;;;0.10;0.10;;;;;;;;;;4977875;28;20497;-90
2023/12/15 02:25:30;;;;;;;0.10;0.10;;;;;;;;;;4976385;28;20049;-90
2023/12/15 02:27:57;;;;;;;0.10;0.10;;;;;;;;;;4978647;28;20038;-94
2023/12/15 02:30:23;;;;;;;0.10;0.10;;;;;;;;;;4977951;28;20043;-89
2023/12/15 02:32:49;;;;;;;0.10;0.10;;;;;;;;;;4977738;28;20042;-90
2023/12/15 02:35:16;;;;;;;0.10;0.10;;;;;;;;;;4977745;28;20046;-90
2023/12/15 02:37:42;;;;;;;0.10;0.10;;;;;;;;;;4977217;28;20085;-91
2023/12/15 02:40:09;;;;;;;0.30;0.30;;;;;;;;;;4977744;28;20367;-91
2023/12/15 02:42:35;;;;;;;0.10;0.10;;;;;;;;;;4977720;28;20540;-91
2023/12/15 02:45:01;;;;;;;0.10;0.10;;;;;;;;;;4977202;28;20038;-91
2023/12/15 02:47:28;;;;;;;0.10;0.10;;;;;;;;;;4978022;28;20097;-91
2023/12/15 02:49:54;;;;;;;0.10;0.10;;;;;;;;;;4976627;28;20042;-91
2023/12/15 02:52:20;;;;;;;0.10;0.10;;;;;;;;;;4976953;28;20137;-92
2023/12/15 02:54:47;;;;;;;0.20;0.20;;;;;;;;;;4977412;28;20053;-90
2023/12/15 02:57:13;;;;;;;0.30;0.30;;;;;;;;;;4977216;28;20049;-92
2023/12/15 02:59:39;;;;;;;0.10;0.10;;;;;;;;;;4977130;28;20173;-91
2023/12/15 03:02:05;;;;;;;0.10;0.10;;;;;;;;;;4977494;28;20233;-91
2023/12/15 03:04:31;;;;;;;0.10;0.10;;;;;;;;;;4961329;28;20498;-92
2023/12/15 03:06:58;;;;;;;0.10;0.10;;;;;;;;;;4977196;28;20144;-90
2023/12/15 03:09:25;;;;;;;0.10;0.10;;;;;;;;;;4960739;28;20048;-89
2023/12/15 03:11:51;;;;;;;0.20;0.20;;;;;;;;;;4977006;28;20049;-89
2023/12/15 03:14:17;;;;;;;0.20;0.20;;;;;;;;;;4976831;28;20194;-90
2023/12/15 03:16:43;;;;;;;0.40;0.40;;;;;;;;;;4976444;28;20218;-88
2023/12/15 03:19:09;;;;;;;0.10;0.10;;;;;;;;;;4976942;28;20112;-90
2023/12/15 03:21:35;;;;;;;0.15;0.15;;;;;;;;;;4976595;28;20038;-89
2023/12/15 03:24:01;;;;;;;0.10;0.10;;;;;;;;;;4976278;28;20496;-91
2023/12/15 03:26:27;;;;;;;0.13;0.13;;;;;;;;;;4976724;28;20046;-91
2023/12/15 03:28:53;;;;;;;0.10;0.10;;;;;;;;;;4977126;28;20077;-90
2023/12/15 03:31:19;;;;;;;0.20;0.20;;;;;;;;;;4976145;28;20045;-90
2023/12/15 03:33:45;;;;;;;0.10;0.10;;;;;;;;;;4976678;28;20046;-90
2023/12/15 03:36:12;;;;;;;0.13;0.13;;;;;;;;;;4976235;28;20088;-91
2023/12/15 03:38:38;;;;;;;0.17;0.17;;;;;;;;;;4960297;28;20069;-89
2023/12/15 03:41:04;;;;;;;0.10;0.10;;;;;;;;;;4960458;28;20398;-90
2023/12/15 03:43:31;;;;;;;0.10;0.10;;;;;;;;;;4976782;28;20109;-92
2023/12/15 03:45:57;;;;;;;0.20;0.20;;;;;;;;;;4976530;28;20042;-90
2023/12/15 03:48:23;;;;;;;0.10;0.10;;;;;;;;;;4976375;28;20046;-90
2023/12/15 03:50:49;;;;;;;0.10;0.10;;;;;;;;;;4976080;28;20389;-90
2023/12/15 03:53:15;;;;;;;0.20;0.20;;;;;;;;;;4976339;28;20500;-89
2023/12/15 03:55:41;;;;;;;0.10;0.10;;;;;;;;;;4976189;28;20078;-90
2023/12/15 03:58:08;;;;;;;0.43;0.30;;;;;;;;;;4976069;28;20048;-90
2023/12/15 04:00:34;;;;;;;0.10;0.10;;;;;;;;;;4956516;28;20528;-89
2023/12/15 04:03:00;;;;;;;0.10;0.10;;;;;;;;;;4956633;28;20286;-89
2023/12/15 04:05:26;;;;;;;0.50;0.50;;;;;;;;;;4956656;28;20122;-89
2023/12/15 04:07:52;;;;;;;0.10;0.10;;;;;;;;;;4956956;28;20100;-90
2023/12/15 04:10:18;;;;;;;0.25;0.25;;;;;;;;;;4956435;28;20431;-91
2023/12/15 04:12:44;;;;;;;0.10;0.10;;;;;;;;;;4956723;28;20495;-90
2023/12/15 04:15:10;;;;;;;0.10;0.10;;;;;;;;;;4956483;28;20073;-91
2023/12/15 04:17:36;;;;;;;0.10;0.10;;;;;;;;;;4956441;28;20038;-91
2023/12/15 04:20:03;;;;;;;0.15;0.15;;;;;;;;;;4956958;28;20117;-91
2023/12/15 04:22:29;;;;;;;0.10;0.10;;;;;;;;;;4956881;28;20038;-92
2023/12/15 04:24:55;;;;;;;0.10;0.10;;;;;;;;;;4956492;28;20101;-92
2023/12/15 04:27:21;;;;;;;0.10;0.10;;;;;;;;;;4956535;28;20075;-91
2023/12/15 04:29:50;;;;;;;0.10;0.10;;;;;;;;;;4956686;28;20105;-91
2023/12/15 04:32:16;;;;;;;0.32;0.32;;;;;;;;;;4956295;28;20050;-91
2023/12/15 04:34:42;;;;;;;0.10;0.10;;;;;;;;;;4956428;28;20046;-91
2023/12/15 04:37:11;;;;;;;0.10;0.10;;;;;;;;;;4956688;28;20043;-91
2023/12/15 04:39:37;;;;;;;0.20;0.20;;;;;;;;;;4956359;28;20039;-90
2023/12/15 04:42:03;;;;;;;0.10;0.10;;;;;;;;;;4956319;28;20505;-90
2023/12/15 04:44:29;;;;;;;0.10;0.10;;;;;;;;;;4956162;28;20042;-90
2023/12/15 04:46:55;;;;;;;0.38;0.38;;;;;;;;;;4956086;28;20046;-91
2023/12/15 04:49:22;;;;;;;0.10;0.10;;;;;;;;;;4958127;28;20042;-90
2023/12/15 04:51:48;;;;;;;0.20;0.20;;;;;;;;;;4960274;28;20050;-89
2023/12/15 04:54:14;;;;;;;0.10;0.10;;;;;;;;;;4960726;28;20102;-90
2023/12/15 04:56:40;;;;;;;0.13;0.13;;;;;;;;;;4960073;28;20479;-91
2023/12/15 04:59:06;;;;;;;0.10;0.10;;;;;;;;;;4960013;28;20039;-90
2023/12/15 05:01:32;;;;;;;0.10;0.10;;;;;;;;;;4971646;28;20059;-90
2023/12/15 05:03:58;;;;;;;0.10;0.10;;;;;;;;;;4960044;28;20042;-91
2023/12/15 05:06:26;;;;;;;0.32;0.32;;;;;;;;;;4944249;28;20070;-90
2023/12/15 05:08:52;;;;;;;0.20;0.20;;;;;;;;;;4944123;28;20042;-88
2023/12/15 05:11:18;;;;;;;0.20;0.20;;;;;;;;;;4944203;28;20050;-90
2023/12/15 05:13:44;;;;;;;0.20;0.20;;;;;;;;;;4943709;28;20442;-90
2023/12/15 05:16:10;;;;;;;0.28;0.20;;;;;;;;;;4943672;28;20042;-90
2023/12/15 05:18:36;;;;;;;0.10;0.10;;;;;;;;;;4944299;28;20043;-89
2023/12/15 05:21:02;;;;;;;0.10;0.10;;;;;;;;;;4943560;28;20125;-90
2023/12/15 05:23:28;;;;;;;0.20;0.20;;;;;;;;;;4943668;28;20098;-89
2023/12/15 05:25:54;;;;;;;0.30;0.20;;;;;;;;;;4943780;28;20074;-90
2023/12/15 05:28:20;;;;;;;0.28;0.20;;;;;;;;;;4943809;28;20372;-91
2023/12/15 05:30:47;;;;;;;0.10;0.10;;;;;;;;;;4943268;28;20046;-91
2023/12/15 05:33:13;;;;;;;0.10;0.10;;;;;;;;;;4943712;28;20503;-90
2023/12/15 05:35:40;;;;;;;0.10;0.10;;;;;;;;;;4943703;28;20074;-91
2023/12/15 05:38:06;;;;;;;0.10;0.10;;;;;;;;;;4959287;28;20046;-90
2023/12/15 05:40:32;;;;;;;0.10;0.10;;;;;;;;;;4943250;28;20062;-90
2023/12/15 05:42:58;;;;;;;0.10;0.10;;;;;;;;;;4942943;28;20210;-90
2023/12/15 05:45:24;;;;;;;0.22;0.22;;;;;;;;;;4959257;28;20039;-89
2023/12/15 05:47:50;;;;;;;0.10;0.10;;;;;;;;;;4943259;28;20066;-89
2023/12/15 05:50:16;;;;;;;0.10;0.10;;;;;;;;;;4943664;28;20046;-90
2023/12/15 05:52:42;;;;;;;0.10;0.10;;;;;;;;;;4943355;28;20533;-89
2023/12/15 05:55:08;;;;;;;0.10;0.10;;;;;;;;;;4943199;28;20042;-90
2023/12/15 05:57:34;;;;;;;0.10;0.10;;;;;;;;;;4959009;28;20451;-90
2023/12/15 06:00:00;;;;;;;0.10;0.10;;;;;;;;;;4945647;28;20117;-89
2023/12/15 06:02:27;;;;;;;0.28;0.28;;;;;;;;;;4978240;28;20042;-90
2023/12/15 06:04:53;;;;;;;0.35;0.35;;;;;;;;;;4978074;28;20046;-90
2023/12/15 06:07:19;;;;;;;0.10;0.10;;;;;;;;;;4978051;28;20038;-90
2023/12/15 06:09:45;;;;;;;0.10;0.10;;;;;;;;;;4977893;28;20092;-89
2023/12/15 06:12:11;;;;;;;0.10;0.10;;;;;;;;;;4977750;28;20541;-89
2023/12/15 06:14:37;;;;;;;0.10;0.10;;;;;;;;;;4977790;28;20046;-90
2023/12/15 06:17:06;;;;;;;0.10;0.10;;;;;;;;;;4977919;28;20050;-90
2023/12/15 06:19:33;;;;;;;0.10;0.10;;;;;;;;;;4977792;28;20034;-90
2023/12/15 06:21:59;;;;;;;0.10;0.10;;;;;;;;;;4978159;28;20371;-90
2023/12/15 06:24:25;;;;;;;0.10;0.10;;;;;;;;;;4961503;28;20046;-90
2023/12/15 06:26:51;;;;;;;0.10;0.10;;;;;;;;;;4977691;28;20046;-90
2023/12/15 06:29:17;;;;;;;0.10;0.10;;;;;;;;;;4978117;28;20077;-91
2023/12/15 06:31:47;;;;;;;0.10;0.10;;;;;;;;;;4961427;28;20046;-90
2023/12/15 06:34:13;;;;;;;0.10;0.10;;;;;;;;;;4977903;28;20050;-90
2023/12/15 06:36:39;;;;;;;0.10;0.10;;;;;;;;;;4977422;28;20042;-88
2023/12/15 06:39:05;;;;;;;0.30;0.30;;;;;;;;;;4977190;28;20082;-90
2023/12/15 06:41:31;;;;;;;0.10;0.10;;;;;;;;;;4977584;28;20453;-90
2023/12/15 06:43:58;;;;;;;0.10;0.10;;;;;;;;;;4978127;28;20081;-90
2023/12/15 06:46:24;;;;;;;0.10;0.10;;;;;;;;;;4977547;28;20046;-89
2023/12/15 06:48:50;;;;;;;0.10;0.10;;;;;;;;;;4977311;28;20521;-90
2023/12/15 06:51:17;;;;;;;0.10;0.10;;;;;;;;;;4977353;28;20045;-90
2023/12/15 06:53:43;;;;;;;0.10;0.10;;;;;;;;;;4977428;28;20050;-89
2023/12/15 06:56:09;;;;;;;0.20;0.20;;;;;;;;;;4977071;28;20137;-90
2023/12/15 06:58:35;;;;;;;0.10;0.10;;;;;;;;;;4977363;28;20039;-90
2023/12/15 07:01:01;;;;;;;0.10;0.10;;;;;;;;;;4976857;28;20058;-90
2023/12/15 07:03:28;;;;;;;0.20;0.20;;;;;;;;;;4977174;28;20165;-90
2023/12/15 07:05:54;;;;;;;0.40;0.40;;;;;;;;;;4976887;28;20137;-90
2023/12/15 07:08:20;;;;;;;0.10;0.10;;;;;;;;;;4976720;28;20048;-91
2023/12/15 07:10:47;;;;;;;0.10;0.10;;;;;;;;;;4976804;28;20042;-90
2023/12/15 07:13:13;;;;;;;0.10;0.10;;;;;;;;;;4960335;28;20101;-91
2023/12/15 07:15:39;;;;;;;0.10;0.10;;;;;;;;;;4976809;28;20053;-89
2023/12/15 07:18:05;;;;;;;0.10;0.10;;;;;;;;;;4976837;28;20437;-89
2023/12/15 07:20:31;;;;;;;0.10;0.10;;;;;;;;;;4976948;28;20077;-90
2023/12/15 07:22:57;;;;;;;0.10;0.10;;;;;;;;;;4976469;28;20093;-90
2023/12/15 07:25:26;;;;;;;0.22;0.22;;;;;;;;;;4976543;28;20073;-89
2023/12/15 07:27:55;;;;;;;0.10;0.10;;;;;;;;;;4976721;28;20046;-90
2023/12/15 07:30:24;;;;;;;0.10;0.10;;;;;;;;;;4976419;28;20182;-91
2023/12/15 07:32:50;;;;;;;0.10;0.10;;;;;;;;;;4976782;28;20132;-90
2023/12/15 07:35:16;;;;;;;0.10;0.10;;;;;;;;;;4976494;28;20133;-90
2023/12/15 07:37:42;;;;;;;0.10;0.10;;;;;;;;;;4976277;28;20038;-90
2023/12/15 07:40:08;;;;;;;0.10;0.10;;;;;;;;;;4976472;28;20125;-90
2023/12/15 07:42:34;;;;;;;0.20;0.20;;;;;;;;;;4976198;28;20078;-91
2023/12/15 07:45:00;;;;;;;0.10;0.10;;;;;;;;;;4976714;28;20038;-88
2023/12/15 07:47:27;;;;;;;0.10;0.10;;;;;;;;;;4976208;28;20512;-92
2023/12/15 07:49:52;;;;;;;0.10;0.10;;;;;;;;;;4976532;28;20128;-88
2023/12/15 07:52:19;;;;;;;0.10;0.10;;;;;;;;;;4976494;28;20095;-91
2023/12/15 07:54:44;;;;;;;3.60;0.50;;;;;;;;;;4977210;28;20042;-91
2023/12/15 07:57:12;;;;;;;0.20;0.20;;;;;;;;;;4976549;28;20398;-91
2023/12/15 07:59:45;;;;;;;0.10;0.10;;;;;;;;;;4975974;28;20046;-89
2023/12/15 08:02:16;;;;;;;0.20;0.20;;;;;;;;;;4976751;28;20042;-93
2023/12/15 08:04:42;;;;;;;0.10;0.10;;;;;;;;;;4976284;28;20139;-90
2023/12/15 08:07:08;;;;;;;0.10;0.10;;;;;;;;;;4976273;28;20120;-90
2023/12/15 08:09:34;;;;;;;0.30;0.30;;;;;;;;;;4976274;28;20096;-90
2023/12/15 08:12:01;;;;;;;0.10;0.10;;;;;;;;;;4976496;28;20077;-91
2023/12/15 08:14:27;;;;;;;0.10;0.10;;;;;;;;;;4975909;28;20096;-90
2023/12/15 08:16:54;;;;;;;0.10;0.10;;;;;;;;;;4976398;28;20053;-91
2023/12/15 08:19:20;;;;;;;0.20;0.20;;;;;;;;;;4975616;28;20042;-92
2023/12/15 08:21:48;;;;;;;0.10;0.10;;;;;;;;;;4975748;28;20089;-90
2023/12/15 08:24:14;;;;;;;0.10;0.10;;;;;;;;;;4975922;28;20042;-90
2023/12/15 08:26:40;;;;;;;0.10;0.10;;;;;;;;;;4975737;28;20490;-91
2023/12/15 08:29:06;;;;;;;0.10;0.10;;;;;;;;;;4974344;28;20038;-90
2023/12/15 08:31:32;;;;;;;0.10;0.10;;;;;;;;;;4959192;28;20379;-89
2023/12/15 08:33:58;;;;;;;0.10;0.10;;;;;;;;;;4959198;28;20034;-88
2023/12/15 08:36:24;;;;;;;0.10;0.10;;;;;;;;;;4975705;28;20514;-86
2023/12/15 08:38:50;;;;;;;0.10;0.10;;;;;;;;;;4975265;28;20038;-89
2023/12/15 08:41:16;;;;;;;0.10;0.10;;;;;;;;;;4991390;28;20505;-89
2023/12/15 08:43:42;;;;;;;0.10;0.10;;;;;;;;;;4991648;28;20038;-91
2023/12/15 08:46:08;;;;;;;0.10;0.10;;;;;;;;;;4975451;28;20387;-91
2023/12/15 08:48:34;;;;;;;0.10;0.10;;;;;;;;;;4975181;28;20057;-89
2023/12/15 08:51:00;;;;;;;0.10;0.10;;;;;;;;;;4974840;28;20069;-90
2023/12/15 08:53:26;;;;;;;0.10;0.10;;;;;;;;;;4959204;28;20517;-89
2023/12/15 08:55:52;;;;;;;0.10;0.10;;;;;;;;;;4959471;28;20130;-90
2023/12/15 08:58:21;;;;;;;0.10;0.10;;;;;;;;;;4975051;28;20038;-88
2023/12/15 09:00:49;;;;;;;0.10;0.10;;;;;;;;;;4974966;28;20050;-91
2023/12/15 09:03:15;;;;;;;0.10;0.10;;;;;;;;;;4975406;28;20458;-91
2023/12/15 09:05:41;;;;;;;0.22;0.22;;;;;;;;;;4975396;28;20046;-91
2023/12/15 09:08:07;;;;;;;0.10;0.10;;;;;;;;;;4975698;28;20057;-90
2023/12/15 09:10:35;;;;;;;0.10;0.10;;;;;;;;;;4975055;28;20056;-90
2023/12/15 09:13:02;;;;;;;0.10;0.10;;;;;;;;;;4975042;28;20089;-92
2023/12/15 09:15:28;;;;;;;0.10;0.10;;;;;;;;;;4975313;28;20046;-90
2023/12/15 09:17:54;;;;;;;0.10;0.10;;;;;;;;;;4975097;28;20050;-90
2023/12/15 09:20:20;;;;;;;0.10;0.10;;;;;;;;;;4975155;28;20042;-89
2023/12/15 09:22:46;;;;;;;0.10;0.10;;;;;;;;;;4975071;28;20500;-87
2023/12/15 09:25:13;;;;;;;0.10;0.10;;;;;;;;;;4975535;28;20436;-89
2023/12/15 09:27:38;;;;;;;0.10;0.10;;;;;;;;;;4974906;28;20129;-90
2023/12/15 09:30:06;;;;;;;0.10;0.10;;;;;;;;;;4974864;28;20169;-90
2023/12/15 09:32:32;;;;;;;0.10;0.10;;;;;;;;;;4975029;28;20045;-90
2023/12/15 09:34:58;;;;;;;0.10;0.10;;;;;;;;;;4976249;28;20156;-88
2023/12/15 09:37:24;;;;;;;0.10;0.10;;;;;;;;;;4978405;28;20062;-90
2023/12/15 09:39:50;;;;;;;0.10;0.10;;;;;;;;;;4978496;28;20723;-89
2023/12/15 09:42:16;;;;;;;0.10;0.10;;;;;;;;;;4978419;28;20536;-89
2023/12/15 09:44:42;;;;;;;0.10;0.10;;;;;;;;;;4978153;28;20506;-90
2023/12/15 09:47:08;;;;;;;0.10;0.10;;;;;;;;;;4978268;28;20100;-88
2023/12/15 09:49:34;;;;;;;0.10;0.10;;;;;;;;;;4973619;28;20080;-90
2023/12/15 09:52:03;;;;;;;0.10;0.10;;;;;;;;;;4975017;28;20090;-90
2023/12/15 09:54:30;;;;;;;0.10;0.10;;;;;;;;;;4982023;28;20130;-90
2023/12/15 09:56:56;;;;;;;0.10;0.10;;;;;;;;;;4998146;28;20038;-91
2023/12/15 09:59:22;;;;;;;0.20;0.20;;;;;;;;;;4997101;28;20045;-90
2023/12/15 10:01:49;;;;;;;0.10;0.10;;;;;;;;;;4989627;28;20490;-90
2023/12/15 10:04:15;;;;;;;0.10;0.10;;;;;;;;;;4979692;28;20038;-89
2023/12/15 10:06:41;;;;;;;0.10;0.10;;;;;;;;;;4997377;28;20042;-89
2023/12/15 10:09:13;;;;;;;0.20;0.20;;;;;;;;;;4989999;28;20049;-89
2023/12/15 10:11:39;;;;;;;0.10;0.10;;;;;;;;;;4996909;28;20161;-89
2023/12/15 10:14:07;;;;;;;0.10;0.10;;;;;;;;;;4997036;28;20292;-90
2023/12/15 10:16:33;;;;;;;0.10;0.10;;;;;;;;;;4996842;28;20052;-89
2023/12/15 10:19:02;;;;;;;0.10;0.10;;;;;;;;;;5013245;28;20037;-91
2023/12/15 10:21:28;;;;;;;0.20;0.20;;;;;;;;;;4996966;28;20038;-91
2023/12/15 10:23:54;;;;;;;0.10;0.10;;;;;;;;;;4996833;28;20048;-90
2023/12/15 10:26:20;;;;;;;0.10;0.10;;;;;;;;;;4996852;28;20440;-90
2023/12/15 10:28:46;;;;;;;0.10;0.10;;;;;;;;;;4996738;28;20034;-90
2023/12/15 10:31:12;;;;;;;0.10;0.10;;;;;;;;;;4996921;28;20042;-90
2023/12/15 10:33:38;;;;;;;7.20;0.45;;;;;;;;;;4993443;28;20532;-90
2023/12/15 10:36:06;;;;;;;0.10;0.10;;;;;;;;;;4993782;28;20050;-90
2023/12/15 10:38:32;;;;;;;0.10;0.10;;;;;;;;;;4978536;28;20125;-93
2023/12/15 10:41:00;;;;;;;0.10;0.10;;;;;;;;;;4997222;28;20437;-93
2023/12/15 10:43:27;;;;;;;0.20;0.20;;;;;;;;;;4997288;28;20172;-90
2023/12/15 10:45:53;;;;;;;0.20;0.20;;;;;;;;;;4996188;28;20389;-90
2023/12/15 10:48:19;;;;;;;0.10;0.10;;;;;;;;;;4996415;28;20488;-88
2023/12/15 10:50:45;;;;;;;0.20;0.20;;;;;;;;;;5012509;28;20046;-89
2023/12/15 10:53:13;;;;;;;0.13;0.13;;;;;;;;;;4996806;28;20046;-92
2023/12/15 10:55:39;;;;;;;1.75;0.20;;;;;;;;;;4987871;28;20053;-90
2023/12/15 10:58:08;;;;;;;0.10;0.10;;;;;;;;;;4977464;28;20034;-91
2023/12/15 11:00:35;;;;;;;0.20;0.20;;;;;;;;;;4989984;28;20120;-90
2023/12/15 11:03:01;;;;;;;0.22;0.22;;;;;;;;;;4961027;28;20049;-90
2023/12/15 11:05:27;;;;;;;0.10;0.10;;;;;;;;;;4977271;28;20406;-89
2023/12/15 11:07:53;;;;;;;0.20;0.20;;;;;;;;;;4976235;28;20038;-89
2023/12/15 11:10:19;;;;;;;0.10;0.10;;;;;;;;;;4987510;28;20050;-89
2023/12/15 11:12:45;;;;;;;0.10;0.10;;;;;;;;;;4960565;28;20038;-90
2023/12/15 11:15:11;;;;;;;0.10;0.10;;;;;;;;;;4960451;28;20494;-90
2023/12/15 11:17:47;;;;;;;0.10;0.10;;;;;;;;;;4960264;28;20045;-89
2023/12/15 11:20:19;;;;;;;0.10;0.10;;;;;;;;;;4960204;28;20461;-91
2023/12/15 11:22:49;;;;;;;0.10;0.10;;;;;;;;;;4976312;28;20042;-89
2023/12/15 11:25:22;;;;;;;0.10;0.10;;;;;;;;;;4959983;28;20034;-89
2023/12/15 11:28:00;;;;;;;0.10;0.10;;;;;;;;;;4960534;28;20050;-90
2023/12/15 11:30:30;;;;;;;0.10;0.10;;;;;;;;;;4975315;28;20042;-90
2023/12/15 11:32:56;;;;;;;0.10;0.10;;;;;;;;;;4975764;28;20042;-90
2023/12/15 11:35:32;;;;;;;0.10;0.10;;;;;;;;;;5009013;28;20045;-92
2023/12/15 11:37:59;;;;;;;0.10;0.10;;;;;;;;;;4995629;28;20129;-90
2023/12/15 11:40:29;;;;;;;0.52;0.52;;;;;;;;;;4991972;28;20500;-90
2023/12/15 11:42:56;;;;;;;0.20;0.20;;;;;;;;;;4954973;28;20057;-90
2023/12/15 11:45:24;;;;;;;0.10;0.10;;;;;;;;;;4975987;28;20038;-90
2023/12/15 11:47:50;;;;;;;0.20;0.20;;;;;;;;;;4976173;28;20133;-92
2023/12/15 11:50:16;;;;;;;0.10;0.10;;;;;;;;;;4976839;28;20077;-92
2023/12/15 11:52:42;;;;;;;0.20;0.20;;;;;;;;;;4976446;28;20077;-92
2023/12/15 11:55:08;;;;;;;0.10;0.10;;;;;;;;;;4976520;28;20084;-90
2023/12/15 11:57:37;;;;;;;0.10;0.10;;;;;;;;;;4976067;28;20481;-91
2023/12/15 12:00:04;;;;;;;0.10;0.10;;;;;;;;;;4976083;28;20116;-91
2023/12/15 12:02:30;;;;;;;0.10;0.10;;;;;;;;;;4976871;28;20061;-91
2023/12/15 12:04:56;;;;;;;0.60;0.60;;;;;;;;;;4976287;28;20065;-92
2023/12/15 12:07:22;;;;;;;0.20;0.20;;;;;;;;;;4976636;28;20045;-91
2023/12/15 12:09:50;;;;;;;0.10;0.10;;;;;;;;;;4976791;28;20046;-92
2023/12/15 12:12:17;;;;;;;0.10;0.10;;;;;;;;;;4976481;28;20064;-91
2023/12/15 12:14:43;;;;;;;0.10;0.10;;;;;;;;;;4976654;28;20053;-94
2023/12/15 12:17:12;;;;;;;0.10;0.10;;;;;;;;;;4976388;28;20515;-91
2023/12/15 12:19:42;;;;;;;0.20;0.20;;;;;;;;;;4976052;28;20154;-92
2023/12/15 12:22:14;;;;;;;0.20;0.20;;;;;;;;;;4976454;28;20042;-92
2023/12/15 12:24:40;;;;;;;0.20;0.20;;;;;;;;;;4976475;28;20038;-92
2023/12/15 12:27:07;;;;;;;0.15;0.15;;;;;;;;;;4975848;28;20050;-91
2023/12/15 12:29:35;;;;;;;0.10;0.10;;;;;;;;;;4976275;28;20440;-91
2023/12/15 12:32:01;;;;;;;0.40;0.40;;;;;;;;;;4976929;28;20108;-92
2023/12/15 12:34:30;;;;;;;0.17;0.17;;;;;;;;;;4976377;28;20478;-92
2023/12/15 12:36:56;;;;;;;0.10;0.10;;;;;;;;;;4977127;28;20039;-91
2023/12/15 12:39:23;;;;;;;0.10;0.10;;;;;;;;;;4976630;28;20410;-92
2023/12/15 12:41:49;;;;;;;0.52;0.20;;;;;;;;;;4976008;28;20038;-92
2023/12/15 12:44:15;;;;;;;0.10;0.10;;;;;;;;;;4977205;28;20034;-92
2023/12/15 12:46:41;;;;;;;0.10;0.10;;;;;;;;;;4977727;28;20410;-91
2023/12/15 12:49:07;;;;;;;0.10;0.10;;;;;;;;;;4976484;28;20050;-92
2023/12/15 12:51:33;;;;;;;0.20;0.20;;;;;;;;;;4976120;28;20035;-93
2023/12/15 12:53:59;;;;;;;0.10;0.10;;;;;;;;;;4976668;28;20065;-93
2023/12/15 12:56:25;;;;;;;0.10;0.10;;;;;;;;;;4976285;28;20478;-93
2023/12/15 12:58:51;;;;;;;0.10;0.10;;;;;;;;;;4977218;28;20044;-92
2023/12/15 13:01:18;;;;;;;0.10;0.10;;;;;;;;;;4975705;28;20490;-91
2023/12/15 13:03:46;;;;;;;0.10;0.10;;;;;;;;;;4975986;28;20046;-89
2023/12/15 13:06:12;;;;;;;0.10;0.10;;;;;;;;;;4959038;28;20038;-89
2023/12/15 13:08:38;;;;;;;0.10;0.10;;;;;;;;;;4975181;28;20613;-89
2023/12/15 13:11:07;;;;;;;0.10;0.10;;;;;;;;;;4978389;28;20501;-93
2023/12/15 13:13:33;;;;;;;0.10;0.10;;;;;;;;;;4979231;28;20042;-89
2023/12/15 13:15:59;;;;;;;0.10;0.10;;;;;;;;;;4979010;28;20049;-90
2023/12/15 13:18:25;;;;;;;0.10;0.10;;;;;;;;;;4978818;28;20039;-90
2023/12/15 13:20:54;;;;;;;0.10;0.10;;;;;;;;;;4979056;28;20050;-90
2023/12/15 13:23:22;;;;;;;0.10;0.10;;;;;;;;;;4962205;28;20110;-91
2023/12/15 13:25:49;;;;;;;0.10;0.10;;;;;;;;;;4978523;28;20045;-89
2023/12/15 13:28:15;;;;;;;0.10;0.10;;;;;;;;;;4978573;28;20039;-90
2023/12/15 13:30:43;;;;;;;0.10;0.10;;;;;;;;;;4978874;28;20100;-89
2023/12/15 13:33:10;;;;;;;0.10;0.10;;;;;;;;;;4978799;28;20046;-89
2023/12/15 13:35:36;;;;;;;0.13;0.13;;;;;;;;;;4978108;28;20093;-88
2023/12/15 13:38:02;;;;;;;0.10;0.10;;;;;;;;;;4978449;28;20054;-88
2023/12/15 13:40:28;;;;;;;0.10;0.10;;;;;;;;;;4978284;28;20112;-89
2023/12/15 13:42:54;;;;;;;0.10;0.10;;;;;;;;;;4978274;28;20046;-88
2023/12/15 13:45:21;;;;;;;0.10;0.10;;;;;;;;;;4978101;28;20043;-88
2023/12/15 13:47:48;;;;;;;0.10;0.10;;;;;;;;;;4978031;28;20046;-88
2023/12/15 13:50:15;;;;;;;0.10;0.10;;;;;;;;;;4977979;28;20050;-88
2023/12/15 13:52:41;;;;;;;0.10;0.10;;;;;;;;;;4978007;28;20482;-89
2023/12/15 13:55:07;;;;;;;0.20;0.20;;;;;;;;;;4977994;28;20038;-88
2023/12/15 13:57:33;;;;;;;0.10;0.10;;;;;;;;;;4978079;28;20046;-89
2023/12/15 13:59:59;;;;;;;0.10;0.10;;;;;;;;;;4977559;28;20525;-88
2023/12/15 14:02:25;;;;;;;0.20;0.20;;;;;;;;;;4977797;28;20039;-89
2023/12/15 14:04:51;;;;;;;0.10;0.10;;;;;;;;;;4977725;28;20129;-88
2023/12/15 14:07:17;;;;;;;0.10;0.10;;;;;;;;;;4977514;28;20045;-89
2023/12/15 14:09:43;;;;;;;0.10;0.10;;;;;;;;;;4976194;28;20145;-88
2023/12/15 14:12:09;;;;;;;0.10;0.10;;;;;;;;;;4977355;28;20047;-88
2023/12/15 14:14:35;;;;;;;0.10;0.10;;;;;;;;;;4961418;28;20042;-88
2023/12/15 14:17:02;;;;;;;0.20;0.20;;;;;;;;;;4961462;28;20101;-88
2023/12/15 14:19:28;;;;;;;0.20;0.20;;;;;;;;;;4961415;28;20059;-88
2023/12/15 14:21:54;;;;;;;0.10;0.10;;;;;;;;;;4961141;28;20043;-88
2023/12/15 14:24:20;;;;;;;0.10;0.10;;;;;;;;;;4961246;28;20034;-87
2023/12/15 14:26:46;;;;;;;0.10;0.10;;;;;;;;;;4993225;28;20043;-89
2023/12/15 14:29:12;;;;;;;0.10;0.10;;;;;;;;;;4961213;28;20049;-88
2023/12/15 14:31:38;;;;;;;0.10;0.10;;;;;;;;;;4961253;28;20042;-88
2023/12/15 14:34:04;;;;;;;0.10;0.10;;;;;;;;;;4992383;28;20520;-88
2023/12/15 14:36:30;;;;;;;0.10;0.10;;;;;;;;;;5001660;28;20137;-89
2023/12/15 14:38:56;;;;;;;0.10;0.10;;;;;;;;;;4973931;28;20097;-89